sensor_id;sensor_type;location;lat;lon;timestamp;P1;durP1;ratioP1;P2;durP2;ratioP2
65545;SDS011;52177;55.968;37.498;2023-08-20T00:00:21;13.27;;;8.50;;
65545;SDS011;52177;55.968;37.498;2023-08-20T00:00:52;9.68;;;8.30;;
65545;SDS011;52177;55.968;37.498;2023-08-20T00:01:24;9.05;;;8.05;;
65545;SDS011;52177;55.968;37.498;2023-08-20T00:01:56;9.30;;;7.38;;
65545;SDS011;52177;55.968;37.498;2023-08-20T00:02:28;13.10;;;8.63;;
65545;SDS011;52177;55.968;37.498;2023-08-20T00:03:03;13.20;;;8.45;;
65545;SDS011;52177;55.968;37.498;2023-08-20T00:03:40;9.50;;;8.10;;
65545;SDS011;52177;55.968;37.498;2023-08-20T00:04:11;10.18;;;8.35;;
65545;SDS011;52177;55.968;37.498;2023-08-20T00:04:42;13.60;;;8.35;;
65545;SDS011;52177;55.968;37.498;2023-08-20T00:05:16;10.35;;;8.02;;
65545;SDS011;52177;55.968;37.498;2023-08-20T00:05:47;11.30;;;7.60;;
65545;SDS011;52177;55.968;37.498;2023-08-20T00:06:18;10.60;;;8.23;;
65545;SDS011;52177;55.968;37.498;2023-08-20T00:06:49;10.63;;;8.05;;
65545;SDS011;52177;55.968;37.498;2023-08-20T00:07:20;9.48;;;7.90;;
65545;SDS011;52177;55.968;37.498;2023-08-20T00:07:50;8.93;;;8.02;;
65545;SDS011;52177;55.968;37.498;2023-08-20T00:08:20;9.45;;;8.02;;
65545;SDS011;52177;55.968;37.498;2023-08-20T00:08:51;14.10;;;8.88;;
65545;SDS011;52177;55.968;37.498;2023-08-20T00:09:21;10.30;;;8.82;;
65545;SDS011;52177;55.968;37.498;2023-08-20T00:09:53;8.93;;;8.00;;
65545;SDS011;52177;55.968;37.498;2023-08-20T00:10:24;8.88;;;8.07;;
65545;SDS011;52177;55.968;37.498;2023-08-20T00:10:54;9.38;;;8.48;;
65545;SDS011;52177;55.968;37.498;2023-08-20T00:11:24;12.02;;;8.25;;
65545;SDS011;52177;55.968;37.498;2023-08-20T00:11:55;17.05;;;8.77;;
65545;SDS011;52177;55.968;37.498;2023-08-20T00:12:26;9.30;;;8.35;;
65545;SDS011;52177;55.968;37.498;2023-08-20T00:12:56;9.38;;;8.40;;
65545;SDS011;52177;55.968;37.498;2023-08-20T00:13:27;11.73;;;8.10;;
65545;SDS011;52177;55.968;37.498;2023-08-20T00:13:58;9.02;;;7.97;;
65545;SDS011;52177;55.968;37.498;2023-08-20T00:15:35;8.23;;;7.53;;
65545;SDS011;52177;55.968;37.498;2023-08-20T00:16:06;12.73;;;8.73;;
65545;SDS011;52177;55.968;37.498;2023-08-20T00:16:37;8.88;;;7.90;;
65545;SDS011;52177;55.968;37.498;2023-08-20T00:17:08;9.13;;;8.18;;
65545;SDS011;52177;55.968;37.498;2023-08-20T00:17:39;9.23;;;7.28;;
65545;SDS011;52177;55.968;37.498;2023-08-20T00:18:10;10.10;;;8.00;;
65545;SDS011;52177;55.968;37.498;2023-08-20T00:18:41;10.43;;;7.95;;
65545;SDS011;52177;55.968;37.498;2023-08-20T00:19:12;10.00;;;7.82;;
65545;SDS011;52177;55.968;37.498;2023-08-20T00:19:43;9.32;;;7.95;;
65545;SDS011;52177;55.968;37.498;2023-08-20T00:20:13;9.65;;;7.93;;
65545;SDS011;52177;55.968;37.498;2023-08-20T00:20:47;11.50;;;7.80;;
65545;SDS011;52177;55.968;37.498;2023-08-20T00:21:17;9.93;;;8.05;;
65545;SDS011;52177;55.968;37.498;2023-08-20T00:21:48;11.75;;;8.25;;
65545;SDS011;52177;55.968;37.498;2023-08-20T00:22:19;9.50;;;7.68;;
65545;SDS011;52177;55.968;37.498;2023-08-20T00:22:51;9.10;;;7.80;;
65545;SDS011;52177;55.968;37.498;2023-08-20T00:23:22;8.77;;;7.97;;
65545;SDS011;52177;55.968;37.498;2023-08-20T00:23:52;13.25;;;8.23;;
65545;SDS011;52177;55.968;37.498;2023-08-20T00:24:23;10.45;;;8.20;;
65545;SDS011;52177;55.968;37.498;2023-08-20T00:24:54;11.15;;;7.82;;
65545;SDS011;52177;55.968;37.498;2023-08-20T00:25:24;11.70;;;8.18;;
65545;SDS011;52177;55.968;37.498;2023-08-20T00:25:55;11.68;;;8.13;;
65545;SDS011;52177;55.968;37.498;2023-08-20T00:26:26;9.88;;;8.10;;
65545;SDS011;52177;55.968;37.498;2023-08-20T00:26:56;9.98;;;8.15;;
65545;SDS011;52177;55.968;37.498;2023-08-20T00:27:27;11.63;;;8.05;;
65545;SDS011;52177;55.968;37.498;2023-08-20T00:27:57;9.27;;;8.07;;
65545;SDS011;52177;55.968;37.498;2023-08-20T00:28:27;12.10;;;8.15;;
65545;SDS011;52177;55.968;37.498;2023-08-20T00:28:58;10.80;;;8.05;;
65545;SDS011;52177;55.968;37.498;2023-08-20T00:29:28;11.77;;;8.60;;
65545;SDS011;52177;55.968;37.498;2023-08-20T00:29:59;9.27;;;8.48;;
65545;SDS011;52177;55.968;37.498;2023-08-20T00:30:29;10.80;;;8.48;;
65545;SDS011;52177;55.968;37.498;2023-08-20T00:31:00;9.23;;;8.10;;
65545;SDS011;52177;55.968;37.498;2023-08-20T00:31:31;11.00;;;8.52;;
65545;SDS011;52177;55.968;37.498;2023-08-20T00:32:01;13.68;;;8.85;;
65545;SDS011;52177;55.968;37.498;2023-08-20T00:32:32;10.77;;;8.80;;
65545;SDS011;52177;55.968;37.498;2023-08-20T00:33:02;9.55;;;8.20;;
65545;SDS011;52177;55.968;37.498;2023-08-20T00:33:33;9.60;;;8.52;;
65545;SDS011;52177;55.968;37.498;2023-08-20T00:34:03;9.25;;;7.93;;
65545;SDS011;52177;55.968;37.498;2023-08-20T00:34:34;11.07;;;8.73;;
65545;SDS011;52177;55.968;37.498;2023-08-20T00:35:04;10.90;;;8.60;;
65545;SDS011;52177;55.968;37.498;2023-08-20T00:35:37;10.80;;;7.75;;
65545;SDS011;52177;55.968;37.498;2023-08-20T00:36:07;11.63;;;9.00;;
65545;SDS011;52177;55.968;37.498;2023-08-20T00:36:38;9.07;;;7.88;;
65545;SDS011;52177;55.968;37.498;2023-08-20T00:37:08;11.05;;;9.05;;
65545;SDS011;52177;55.968;37.498;2023-08-20T00:37:39;11.63;;;8.20;;
65545;SDS011;52177;55.968;37.498;2023-08-20T00:38:09;10.27;;;8.38;;
65545;SDS011;52177;55.968;37.498;2023-08-20T00:38:39;9.18;;;8.27;;
65545;SDS011;52177;55.968;37.498;2023-08-20T00:39:10;11.40;;;8.70;;
65545;SDS011;52177;55.968;37.498;2023-08-20T00:39:40;11.32;;;8.32;;
65545;SDS011;52177;55.968;37.498;2023-08-20T00:40:11;13.20;;;8.40;;
65545;SDS011;52177;55.968;37.498;2023-08-20T00:40:41;10.52;;;8.63;;
65545;SDS011;52177;55.968;37.498;2023-08-20T00:41:12;12.68;;;8.40;;
65545;SDS011;52177;55.968;37.498;2023-08-20T00:41:42;11.70;;;8.27;;
65545;SDS011;52177;55.968;37.498;2023-08-20T00:42:12;10.20;;;8.10;;
65545;SDS011;52177;55.968;37.498;2023-08-20T00:42:45;11.07;;;8.50;;
65545;SDS011;52177;55.968;37.498;2023-08-20T00:43:16;10.55;;;8.40;;
65545;SDS011;52177;55.968;37.498;2023-08-20T00:43:46;10.32;;;8.05;;
65545;SDS011;52177;55.968;37.498;2023-08-20T00:44:16;13.00;;;8.65;;
65545;SDS011;52177;55.968;37.498;2023-08-20T00:44:47;9.30;;;8.40;;
65545;SDS011;52177;55.968;37.498;2023-08-20T00:45:17;10.75;;;8.63;;
65545;SDS011;52177;55.968;37.498;2023-08-20T00:45:48;9.48;;;8.30;;
65545;SDS011;52177;55.968;37.498;2023-08-20T00:46:19;9.98;;;8.68;;
65545;SDS011;52177;55.968;37.498;2023-08-20T00:46:50;12.10;;;8.32;;
65545;SDS011;52177;55.968;37.498;2023-08-20T00:47:21;10.80;;;8.57;;
65545;SDS011;52177;55.968;37.498;2023-08-20T00:47:52;9.60;;;8.30;;
65545;SDS011;52177;55.968;37.498;2023-08-20T00:48:23;9.30;;;7.75;;
65545;SDS011;52177;55.968;37.498;2023-08-20T00:48:54;9.38;;;8.35;;
65545;SDS011;52177;55.968;37.498;2023-08-20T00:49:25;11.88;;;8.70;;
65545;SDS011;52177;55.968;37.498;2023-08-20T00:49:55;10.00;;;8.20;;
65545;SDS011;52177;55.968;37.498;2023-08-20T00:50:26;9.00;;;8.10;;
65545;SDS011;52177;55.968;37.498;2023-08-20T00:50:56;9.63;;;8.10;;
65545;SDS011;52177;55.968;37.498;2023-08-20T00:51:27;9.38;;;8.27;;
65545;SDS011;52177;55.968;37.498;2023-08-20T00:51:58;11.35;;;8.57;;
65545;SDS011;52177;55.968;37.498;2023-08-20T00:52:29;11.13;;;8.68;;
65545;SDS011;52177;55.968;37.498;2023-08-20T00:53:00;10.13;;;8.52;;
65545;SDS011;52177;55.968;37.498;2023-08-20T00:53:30;14.32;;;8.23;;
65545;SDS011;52177;55.968;37.498;2023-08-20T00:54:01;12.00;;;8.63;;
65545;SDS011;52177;55.968;37.498;2023-08-20T00:54:33;8.38;;;7.63;;
65545;SDS011;52177;55.968;37.498;2023-08-20T00:55:07;9.32;;;7.75;;
65545;SDS011;52177;55.968;37.498;2023-08-20T00:55:40;10.85;;;8.48;;
65545;SDS011;52177;55.968;37.498;2023-08-20T00:56:12;9.93;;;8.57;;
65545;SDS011;52177;55.968;37.498;2023-08-20T00:56:42;9.48;;;8.27;;
65545;SDS011;52177;55.968;37.498;2023-08-20T00:57:14;13.07;;;7.85;;
65545;SDS011;52177;55.968;37.498;2023-08-20T00:57:48;10.13;;;8.35;;
65545;SDS011;52177;55.968;37.498;2023-08-20T00:58:18;11.10;;;8.60;;
65545;SDS011;52177;55.968;37.498;2023-08-20T00:58:49;14.25;;;9.13;;
65545;SDS011;52177;55.968;37.498;2023-08-20T00:59:20;9.95;;;8.95;;
65545;SDS011;52177;55.968;37.498;2023-08-20T00:59:50;12.45;;;8.25;;
65545;SDS011;52177;55.968;37.498;2023-08-20T01:00:21;11.93;;;9.30;;
65545;SDS011;52177;55.968;37.498;2023-08-20T01:00:53;10.52;;;8.18;;
65545;SDS011;52177;55.968;37.498;2023-08-20T01:01:24;9.52;;;8.63;;
65545;SDS011;52177;55.968;37.498;2023-08-20T01:01:54;9.68;;;8.05;;
65545;SDS011;52177;55.968;37.498;2023-08-20T01:02:25;9.48;;;8.32;;
65545;SDS011;52177;55.968;37.498;2023-08-20T01:02:55;8.90;;;8.00;;
65545;SDS011;52177;55.968;37.498;2023-08-20T01:03:26;12.38;;;8.50;;
65545;SDS011;52177;55.968;37.498;2023-08-20T01:03:56;9.00;;;8.13;;
65545;SDS011;52177;55.968;37.498;2023-08-20T01:04:27;9.93;;;8.50;;
65545;SDS011;52177;55.968;37.498;2023-08-20T01:04:59;9.50;;;8.45;;
65545;SDS011;52177;55.968;37.498;2023-08-20T01:05:32;8.15;;;7.35;;
65545;SDS011;52177;55.968;37.498;2023-08-20T01:07:17;12.48;;;8.98;;
65545;SDS011;52177;55.968;37.498;2023-08-20T01:08:15;9.60;;;8.18;;
65545;SDS011;52177;55.968;37.498;2023-08-20T01:09:04;9.23;;;8.15;;
65545;SDS011;52177;55.968;37.498;2023-08-20T01:11:16;11.05;;;8.65;;
65545;SDS011;52177;55.968;37.498;2023-08-20T01:11:52;10.40;;;8.23;;
65545;SDS011;52177;55.968;37.498;2023-08-20T01:12:27;10.35;;;8.38;;
65545;SDS011;52177;55.968;37.498;2023-08-20T01:13:00;10.35;;;8.43;;
65545;SDS011;52177;55.968;37.498;2023-08-20T01:13:30;9.90;;;8.85;;
65545;SDS011;52177;55.968;37.498;2023-08-20T01:14:01;9.43;;;8.52;;
65545;SDS011;52177;55.968;37.498;2023-08-20T01:14:31;10.07;;;8.27;;
65545;SDS011;52177;55.968;37.498;2023-08-20T01:15:02;10.90;;;8.30;;
65545;SDS011;52177;55.968;37.498;2023-08-20T01:15:32;9.02;;;7.75;;
65545;SDS011;52177;55.968;37.498;2023-08-20T01:16:03;9.65;;;8.10;;
65545;SDS011;52177;55.968;37.498;2023-08-20T01:16:33;10.07;;;9.07;;
65545;SDS011;52177;55.968;37.498;2023-08-20T01:17:04;9.57;;;8.63;;
65545;SDS011;52177;55.968;37.498;2023-08-20T01:17:34;9.73;;;8.00;;
65545;SDS011;52177;55.968;37.498;2023-08-20T01:18:05;9.00;;;8.10;;
65545;SDS011;52177;55.968;37.498;2023-08-20T01:18:35;9.02;;;8.15;;
65545;SDS011;52177;55.968;37.498;2023-08-20T01:19:06;9.27;;;8.25;;
65545;SDS011;52177;55.968;37.498;2023-08-20T01:19:41;10.00;;;8.35;;
65545;SDS011;52177;55.968;37.498;2023-08-20T01:20:12;15.05;;;9.27;;
65545;SDS011;52177;55.968;37.498;2023-08-20T01:20:58;16.25;;;9.15;;
65545;SDS011;52177;55.968;37.498;2023-08-20T01:21:43;11.45;;;9.18;;
65545;SDS011;52177;55.968;37.498;2023-08-20T01:22:49;12.45;;;8.98;;
65545;SDS011;52177;55.968;37.498;2023-08-20T01:25:32;15.75;;;8.75;;
65545;SDS011;52177;55.968;37.498;2023-08-20T01:28:30;10.10;;;9.02;;
65545;SDS011;52177;55.968;37.498;2023-08-20T01:29:01;12.23;;;9.18;;
65545;SDS011;52177;55.968;37.498;2023-08-20T01:29:33;9.68;;;8.70;;
65545;SDS011;52177;55.968;37.498;2023-08-20T01:30:05;10.45;;;9.43;;
65545;SDS011;52177;55.968;37.498;2023-08-20T01:30:36;11.27;;;9.15;;
65545;SDS011;52177;55.968;37.498;2023-08-20T01:31:07;10.77;;;9.23;;
65545;SDS011;52177;55.968;37.498;2023-08-20T01:31:38;13.55;;;9.10;;
65545;SDS011;52177;55.968;37.498;2023-08-20T01:32:10;12.30;;;9.68;;
65545;SDS011;52177;55.968;37.498;2023-08-20T01:32:42;13.18;;;9.02;;
65545;SDS011;52177;55.968;37.498;2023-08-20T01:33:13;16.17;;;10.00;;
65545;SDS011;52177;55.968;37.498;2023-08-20T01:33:45;10.40;;;9.13;;
65545;SDS011;52177;55.968;37.498;2023-08-20T01:34:15;14.45;;;9.77;;
65545;SDS011;52177;55.968;37.498;2023-08-20T01:34:46;11.00;;;9.45;;
65545;SDS011;52177;55.968;37.498;2023-08-20T01:35:18;10.43;;;9.35;;
65545;SDS011;52177;55.968;37.498;2023-08-20T01:35:49;11.95;;;9.73;;
65545;SDS011;52177;55.968;37.498;2023-08-20T01:36:19;12.18;;;9.60;;
65545;SDS011;52177;55.968;37.498;2023-08-20T01:36:50;10.55;;;9.20;;
65545;SDS011;52177;55.968;37.498;2023-08-20T01:37:21;12.55;;;9.55;;
65545;SDS011;52177;55.968;37.498;2023-08-20T01:37:52;11.10;;;9.20;;
65545;SDS011;52177;55.968;37.498;2023-08-20T01:38:22;12.65;;;9.88;;
65545;SDS011;52177;55.968;37.498;2023-08-20T01:38:53;9.77;;;8.68;;
65545;SDS011;52177;55.968;37.498;2023-08-20T01:39:23;15.82;;;9.60;;
65545;SDS011;52177;55.968;37.498;2023-08-20T01:39:54;9.93;;;8.98;;
65545;SDS011;52177;55.968;37.498;2023-08-20T01:40:24;10.30;;;9.40;;
65545;SDS011;52177;55.968;37.498;2023-08-20T01:40:55;10.93;;;8.73;;
65545;SDS011;52177;55.968;37.498;2023-08-20T01:41:26;13.27;;;9.55;;
65545;SDS011;52177;55.968;37.498;2023-08-20T01:41:56;10.25;;;9.20;;
65545;SDS011;52177;55.968;37.498;2023-08-20T01:42:27;10.98;;;9.60;;
65545;SDS011;52177;55.968;37.498;2023-08-20T01:42:58;13.90;;;9.75;;
65545;SDS011;52177;55.968;37.498;2023-08-20T01:43:28;12.32;;;8.85;;
65545;SDS011;52177;55.968;37.498;2023-08-20T01:43:58;12.55;;;9.65;;
65545;SDS011;52177;55.968;37.498;2023-08-20T01:44:29;11.20;;;9.57;;
65545;SDS011;52177;55.968;37.498;2023-08-20T01:44:59;10.07;;;9.07;;
65545;SDS011;52177;55.968;37.498;2023-08-20T01:45:30;12.50;;;9.02;;
65545;SDS011;52177;55.968;37.498;2023-08-20T01:46:00;9.95;;;8.88;;
65545;SDS011;52177;55.968;37.498;2023-08-20T01:46:30;9.75;;;8.70;;
65545;SDS011;52177;55.968;37.498;2023-08-20T01:47:01;10.45;;;9.38;;
65545;SDS011;52177;55.968;37.498;2023-08-20T01:47:32;10.32;;;8.85;;
65545;SDS011;52177;55.968;37.498;2023-08-20T01:48:03;11.57;;;8.98;;
65545;SDS011;52177;55.968;37.498;2023-08-20T01:48:33;10.07;;;9.10;;
65545;SDS011;52177;55.968;37.498;2023-08-20T01:49:04;10.27;;;9.38;;
65545;SDS011;52177;55.968;37.498;2023-08-20T01:49:34;11.50;;;9.35;;
65545;SDS011;52177;55.968;37.498;2023-08-20T01:50:05;11.48;;;8.63;;
65545;SDS011;52177;55.968;37.498;2023-08-20T01:50:36;10.13;;;9.10;;
65545;SDS011;52177;55.968;37.498;2023-08-20T01:51:07;12.27;;;9.10;;
65545;SDS011;52177;55.968;37.498;2023-08-20T01:51:37;11.60;;;9.30;;
65545;SDS011;52177;55.968;37.498;2023-08-20T01:52:07;12.38;;;9.43;;
65545;SDS011;52177;55.968;37.498;2023-08-20T01:52:38;10.38;;;9.18;;
65545;SDS011;52177;55.968;37.498;2023-08-20T01:53:08;10.32;;;9.32;;
65545;SDS011;52177;55.968;37.498;2023-08-20T01:53:39;12.40;;;9.65;;
65545;SDS011;52177;55.968;37.498;2023-08-20T01:54:10;10.40;;;8.90;;
65545;SDS011;52177;55.968;37.498;2023-08-20T01:54:40;12.40;;;8.88;;
65545;SDS011;52177;55.968;37.498;2023-08-20T01:55:11;10.90;;;9.10;;
65545;SDS011;52177;55.968;37.498;2023-08-20T01:55:41;10.43;;;9.35;;
65545;SDS011;52177;55.968;37.498;2023-08-20T01:56:12;12.95;;;10.23;;
65545;SDS011;52177;55.968;37.498;2023-08-20T01:56:43;11.98;;;8.93;;
65545;SDS011;52177;55.968;37.498;2023-08-20T01:57:13;10.32;;;9.32;;
65545;SDS011;52177;55.968;37.498;2023-08-20T01:57:44;10.93;;;8.98;;
65545;SDS011;52177;55.968;37.498;2023-08-20T01:58:14;10.95;;;9.45;;
65545;SDS011;52177;55.968;37.498;2023-08-20T01:58:45;13.45;;;9.75;;
65545;SDS011;52177;55.968;37.498;2023-08-20T01:59:15;10.90;;;9.02;;
65545;SDS011;52177;55.968;37.498;2023-08-20T01:59:47;9.73;;;8.77;;
65545;SDS011;52177;55.968;37.498;2023-08-20T02:00:18;11.93;;;9.05;;
65545;SDS011;52177;55.968;37.498;2023-08-20T02:00:48;12.15;;;9.10;;
65545;SDS011;52177;55.968;37.498;2023-08-20T02:01:18;9.57;;;8.68;;
65545;SDS011;52177;55.968;37.498;2023-08-20T02:01:49;13.23;;;9.02;;
65545;SDS011;52177;55.968;37.498;2023-08-20T02:02:19;12.48;;;9.23;;
65545;SDS011;52177;55.968;37.498;2023-08-20T02:02:50;10.18;;;9.20;;
65545;SDS011;52177;55.968;37.498;2023-08-20T02:03:20;12.43;;;8.48;;
65545;SDS011;52177;55.968;37.498;2023-08-20T02:03:51;9.98;;;8.80;;
65545;SDS011;52177;55.968;37.498;2023-08-20T02:04:21;11.57;;;9.45;;
65545;SDS011;52177;55.968;37.498;2023-08-20T02:04:52;10.45;;;9.02;;
65545;SDS011;52177;55.968;37.498;2023-08-20T02:05:22;15.88;;;9.82;;
65545;SDS011;52177;55.968;37.498;2023-08-20T02:05:52;10.50;;;9.27;;
65545;SDS011;52177;55.968;37.498;2023-08-20T02:06:23;12.65;;;9.73;;
65545;SDS011;52177;55.968;37.498;2023-08-20T02:06:53;10.30;;;9.30;;
65545;SDS011;52177;55.968;37.498;2023-08-20T02:07:24;12.75;;;8.80;;
65545;SDS011;52177;55.968;37.498;2023-08-20T02:07:54;11.35;;;9.18;;
65545;SDS011;52177;55.968;37.498;2023-08-20T02:08:24;12.65;;;9.32;;
65545;SDS011;52177;55.968;37.498;2023-08-20T02:08:55;15.57;;;9.13;;
65545;SDS011;52177;55.968;37.498;2023-08-20T02:09:25;10.57;;;9.45;;
65545;SDS011;52177;55.968;37.498;2023-08-20T02:09:56;12.38;;;9.85;;
65545;SDS011;52177;55.968;37.498;2023-08-20T02:10:26;10.85;;;9.75;;
65545;SDS011;52177;55.968;37.498;2023-08-20T02:11:03;10.25;;;9.25;;
65545;SDS011;52177;55.968;37.498;2023-08-20T02:11:34;11.07;;;9.88;;
65545;SDS011;52177;55.968;37.498;2023-08-20T02:12:05;11.27;;;9.20;;
65545;SDS011;52177;55.968;37.498;2023-08-20T02:12:36;10.43;;;9.40;;
65545;SDS011;52177;55.968;37.498;2023-08-20T02:13:06;12.05;;;9.43;;
65545;SDS011;52177;55.968;37.498;2023-08-20T02:13:37;10.85;;;9.55;;
65545;SDS011;52177;55.968;37.498;2023-08-20T02:14:07;10.60;;;9.60;;
65545;SDS011;52177;55.968;37.498;2023-08-20T02:14:38;10.20;;;9.20;;
65545;SDS011;52177;55.968;37.498;2023-08-20T02:15:08;9.65;;;8.60;;
65545;SDS011;52177;55.968;37.498;2023-08-20T02:15:41;11.30;;;9.05;;
65545;SDS011;52177;55.968;37.498;2023-08-20T02:16:11;15.65;;;10.30;;
65545;SDS011;52177;55.968;37.498;2023-08-20T02:16:41;13.93;;;9.68;;
65545;SDS011;52177;55.968;37.498;2023-08-20T02:17:12;12.32;;;11.05;;
65545;SDS011;52177;55.968;37.498;2023-08-20T02:17:42;12.57;;;11.27;;
65545;SDS011;52177;55.968;37.498;2023-08-20T02:18:13;13.90;;;11.48;;
65545;SDS011;52177;55.968;37.498;2023-08-20T02:18:43;12.45;;;11.35;;
65545;SDS011;52177;55.968;37.498;2023-08-20T02:19:13;15.23;;;11.63;;
65545;SDS011;52177;55.968;37.498;2023-08-20T02:19:44;14.68;;;10.88;;
65545;SDS011;52177;55.968;37.498;2023-08-20T02:20:14;13.57;;;11.73;;
65545;SDS011;52177;55.968;37.498;2023-08-20T02:20:45;12.82;;;11.45;;
65545;SDS011;52177;55.968;37.498;2023-08-20T02:21:15;12.75;;;10.25;;
65545;SDS011;52177;55.968;37.498;2023-08-20T02:21:45;13.70;;;10.60;;
65545;SDS011;52177;55.968;37.498;2023-08-20T02:22:16;11.88;;;10.68;;
65545;SDS011;52177;55.968;37.498;2023-08-20T02:22:47;11.90;;;10.70;;
65545;SDS011;52177;55.968;37.498;2023-08-20T02:23:17;12.02;;;10.73;;
65545;SDS011;52177;55.968;37.498;2023-08-20T02:23:48;11.43;;;10.32;;
65545;SDS011;52177;55.968;37.498;2023-08-20T02:24:18;12.85;;;10.68;;
65545;SDS011;52177;55.968;37.498;2023-08-20T02:24:49;11.00;;;9.85;;
65545;SDS011;52177;55.968;37.498;2023-08-20T02:25:19;10.68;;;9.57;;
65545;SDS011;52177;55.968;37.498;2023-08-20T02:25:49;14.70;;;10.35;;
65545;SDS011;52177;55.968;37.498;2023-08-20T02:26:20;14.88;;;10.20;;
65545;SDS011;52177;55.968;37.498;2023-08-20T02:26:50;12.10;;;9.85;;
65545;SDS011;52177;55.968;37.498;2023-08-20T02:27:21;11.45;;;10.25;;
65545;SDS011;52177;55.968;37.498;2023-08-20T02:27:51;12.00;;;9.95;;
65545;SDS011;52177;55.968;37.498;2023-08-20T02:28:21;12.23;;;9.95;;
65545;SDS011;52177;55.968;37.498;2023-08-20T02:28:52;11.63;;;10.50;;
65545;SDS011;52177;55.968;37.498;2023-08-20T02:29:22;13.93;;;9.77;;
65545;SDS011;52177;55.968;37.498;2023-08-20T02:29:53;12.75;;;10.05;;
65545;SDS011;52177;55.968;37.498;2023-08-20T02:30:23;13.95;;;10.13;;
65545;SDS011;52177;55.968;37.498;2023-08-20T02:30:53;11.15;;;10.05;;
65545;SDS011;52177;55.968;37.498;2023-08-20T02:31:24;11.00;;;9.60;;
65545;SDS011;52177;55.968;37.498;2023-08-20T02:31:54;12.73;;;10.18;;
65545;SDS011;52177;55.968;37.498;2023-08-20T02:32:25;11.10;;;10.07;;
65545;SDS011;52177;55.968;37.498;2023-08-20T02:32:55;11.50;;;9.63;;
65545;SDS011;52177;55.968;37.498;2023-08-20T02:33:25;11.70;;;10.57;;
65545;SDS011;52177;55.968;37.498;2023-08-20T02:33:56;13.10;;;10.00;;
65545;SDS011;52177;55.968;37.498;2023-08-20T02:34:26;11.77;;;9.73;;
65545;SDS011;52177;55.968;37.498;2023-08-20T02:34:57;12.38;;;9.90;;
65545;SDS011;52177;55.968;37.498;2023-08-20T02:35:27;11.23;;;9.82;;
65545;SDS011;52177;55.968;37.498;2023-08-20T02:36:01;10.15;;;9.15;;
65545;SDS011;52177;55.968;37.498;2023-08-20T02:36:34;10.55;;;9.40;;
65545;SDS011;52177;55.968;37.498;2023-08-20T02:37:04;12.55;;;9.63;;
65545;SDS011;52177;55.968;37.498;2023-08-20T02:37:35;10.70;;;9.13;;
65545;SDS011;52177;55.968;37.498;2023-08-20T02:38:06;9.82;;;8.82;;
65545;SDS011;52177;55.968;37.498;2023-08-20T02:38:38;11.57;;;9.55;;
65545;SDS011;52177;55.968;37.498;2023-08-20T02:39:08;10.75;;;9.52;;
65545;SDS011;52177;55.968;37.498;2023-08-20T02:39:39;13.05;;;10.13;;
65545;SDS011;52177;55.968;37.498;2023-08-20T02:40:09;10.35;;;9.25;;
65545;SDS011;52177;55.968;37.498;2023-08-20T02:40:41;10.32;;;9.35;;
65545;SDS011;52177;55.968;37.498;2023-08-20T02:41:12;10.20;;;9.20;;
65545;SDS011;52177;55.968;37.498;2023-08-20T02:41:42;11.63;;;9.82;;
65545;SDS011;52177;55.968;37.498;2023-08-20T02:42:13;12.52;;;9.50;;
65545;SDS011;52177;55.968;37.498;2023-08-20T02:42:43;13.77;;;10.20;;
65545;SDS011;52177;55.968;37.498;2023-08-20T02:43:14;12.75;;;10.00;;
65545;SDS011;52177;55.968;37.498;2023-08-20T02:43:44;11.23;;;10.10;;
65545;SDS011;52177;55.968;37.498;2023-08-20T02:44:15;11.15;;;9.55;;
65545;SDS011;52177;55.968;37.498;2023-08-20T02:44:45;11.68;;;9.65;;
65545;SDS011;52177;55.968;37.498;2023-08-20T02:45:16;12.20;;;10.05;;
65545;SDS011;52177;55.968;37.498;2023-08-20T02:45:46;11.43;;;9.90;;
65545;SDS011;52177;55.968;37.498;2023-08-20T02:46:17;11.50;;;9.40;;
65545;SDS011;52177;55.968;37.498;2023-08-20T02:46:47;12.23;;;10.02;;
65545;SDS011;52177;55.968;37.498;2023-08-20T02:47:18;10.73;;;9.65;;
65545;SDS011;52177;55.968;37.498;2023-08-20T02:47:48;10.88;;;9.77;;
65545;SDS011;52177;55.968;37.498;2023-08-20T02:48:19;10.75;;;9.65;;
65545;SDS011;52177;55.968;37.498;2023-08-20T02:48:50;14.20;;;9.50;;
65545;SDS011;52177;55.968;37.498;2023-08-20T02:49:20;13.05;;;9.68;;
65545;SDS011;52177;55.968;37.498;2023-08-20T02:49:51;10.70;;;9.25;;
65545;SDS011;52177;55.968;37.498;2023-08-20T02:50:21;10.85;;;9.75;;
65545;SDS011;52177;55.968;37.498;2023-08-20T02:50:51;11.50;;;9.50;;
65545;SDS011;52177;55.968;37.498;2023-08-20T02:51:22;10.85;;;9.63;;
65545;SDS011;52177;55.968;37.498;2023-08-20T02:51:53;10.65;;;9.70;;
65545;SDS011;52177;55.968;37.498;2023-08-20T02:52:23;10.43;;;9.27;;
65545;SDS011;52177;55.968;37.498;2023-08-20T02:52:54;11.23;;;10.07;;
65545;SDS011;52177;55.968;37.498;2023-08-20T02:53:24;10.20;;;9.20;;
65545;SDS011;52177;55.968;37.498;2023-08-20T02:53:55;10.63;;;8.70;;
65545;SDS011;52177;55.968;37.498;2023-08-20T02:54:25;11.35;;;9.10;;
65545;SDS011;52177;55.968;37.498;2023-08-20T02:54:56;10.68;;;9.50;;
65545;SDS011;52177;55.968;37.498;2023-08-20T02:55:26;10.50;;;9.35;;
65545;SDS011;52177;55.968;37.498;2023-08-20T02:55:56;11.57;;;9.02;;
65545;SDS011;52177;55.968;37.498;2023-08-20T02:56:27;10.45;;;9.40;;
65545;SDS011;52177;55.968;37.498;2023-08-20T02:56:58;9.95;;;8.68;;
65545;SDS011;52177;55.968;37.498;2023-08-20T02:57:30;11.35;;;9.32;;
65545;SDS011;52177;55.968;37.498;2023-08-20T02:58:01;14.52;;;9.45;;
65545;SDS011;52177;55.968;37.498;2023-08-20T02:58:33;12.38;;;10.23;;
65545;SDS011;52177;55.968;37.498;2023-08-20T02:59:04;13.85;;;10.00;;
65545;SDS011;52177;55.968;37.498;2023-08-20T02:59:34;10.20;;;9.20;;
65545;SDS011;52177;55.968;37.498;2023-08-20T03:00:05;10.45;;;9.43;;
65545;SDS011;52177;55.968;37.498;2023-08-20T03:00:40;11.73;;;9.32;;
65545;SDS011;52177;55.968;37.498;2023-08-20T03:01:20;10.80;;;9.05;;
65545;SDS011;52177;55.968;37.498;2023-08-20T03:01:51;12.18;;;9.73;;
65545;SDS011;52177;55.968;37.498;2023-08-20T03:02:21;9.93;;;8.93;;
65545;SDS011;52177;55.968;37.498;2023-08-20T03:02:52;12.15;;;9.68;;
65545;SDS011;52177;55.968;37.498;2023-08-20T03:03:22;11.07;;;9.00;;
65545;SDS011;52177;55.968;37.498;2023-08-20T03:03:52;11.05;;;9.45;;
65545;SDS011;52177;55.968;37.498;2023-08-20T03:04:23;12.02;;;9.60;;
65545;SDS011;52177;55.968;37.498;2023-08-20T03:04:53;12.00;;;9.50;;
65545;SDS011;52177;55.968;37.498;2023-08-20T03:05:25;11.45;;;9.18;;
65545;SDS011;52177;55.968;37.498;2023-08-20T03:05:56;10.85;;;8.90;;
65545;SDS011;52177;55.968;37.498;2023-08-20T03:06:26;9.63;;;8.60;;
65545;SDS011;52177;55.968;37.498;2023-08-20T03:06:57;10.43;;;9.32;;
65545;SDS011;52177;55.968;37.498;2023-08-20T03:07:27;10.15;;;9.15;;
65545;SDS011;52177;55.968;37.498;2023-08-20T03:07:57;10.23;;;9.18;;
65545;SDS011;52177;55.968;37.498;2023-08-20T03:08:28;10.52;;;9.32;;
65545;SDS011;52177;55.968;37.498;2023-08-20T03:08:58;10.30;;;9.25;;
65545;SDS011;52177;55.968;37.498;2023-08-20T03:09:29;10.20;;;9.13;;
65545;SDS011;52177;55.968;37.498;2023-08-20T03:09:59;10.52;;;9.13;;
65545;SDS011;52177;55.968;37.498;2023-08-20T03:10:30;10.35;;;8.98;;
65545;SDS011;52177;55.968;37.498;2023-08-20T03:11:04;9.45;;;8.57;;
65545;SDS011;52177;55.968;37.498;2023-08-20T03:11:34;10.65;;;9.23;;